Time;durP1;ratioP1;P1;durP2;ratioP2;P2;SDS_P1;SDS_P2;PMS_P1;PMS_P2;Temp;Humidity;BMP_temperature;BMP_pressure;BME280_temperature;BME280_humidity;BME280_pressure;Samples;Min_cycle;Max_cycle;Signal;HPM_P1;HPM_P2
2023/05/19 00:00:20;;;;;;;7.68;2.88;;;;;;;9.26;65.76;102020.03;4896528;29;20079;-79
2023/05/19 00:02:46;;;;;;;9.55;3.53;;;;;;;9.26;66.81;102022.63;4901255;29;20049;-79
2023/05/19 00:05:17;;;;;;;5.88;2.80;;;;;;;9.27;66.94;102019.19;4880662;29;20051;-79
2023/05/19 00:07:44;;;;;;;6.75;2.80;;;;;;;9.27;66.71;102021.78;4881598;29;20048;-79
2023/05/19 00:10:11;;;;;;;6.40;3.17;;;;;;;9.27;67.03;102021.78;4881571;29;20064;-79
2023/05/19 00:12:38;;;;;;;6.50;2.60;;;;;;;9.25;67.07;102022.63;4882741;29;20059;-82
2023/05/19 00:15:07;;;;;;;3.38;2.72;;;;;;;9.23;67.59;102029.53;4904206;29;20036;-80
2023/05/19 00:17:33;;;;;;;6.20;2.63;;;;;;;9.20;67.90;102024.25;4860311;29;20045;-80
2023/05/19 00:20:00;;;;;;;5.32;2.75;;;;;;;9.17;68.74;102019.88;4903427;29;20048;-80
2023/05/19 00:22:26;;;;;;;4.57;2.95;;;;;;;9.17;69.12;102025.09;4896401;29;20044;-82
2023/05/19 00:24:53;;;;;;;5.65;2.53;;;;;;;9.16;69.58;102018.09;4911893;29;20040;-81
2023/05/19 00:27:22;;;;;;;6.68;2.60;;;;;;;9.14;69.48;102013.69;4910589;29;20410;-91
2023/05/19 00:29:49;;;;;;;3.55;2.67;;;;;;;9.15;69.83;102018.06;4911705;29;20048;-82
2023/05/19 00:32:15;;;;;;;5.38;3.13;;;;;;;9.15;69.66;102021.59;4909256;29;20067;-81
2023/05/19 00:34:41;;;;;;;6.65;3.83;;;;;;;9.14;70.09;102019.81;4911930;29;20140;-82
2023/05/19 00:37:10;;;;;;;9.02;2.70;;;;;;;9.16;69.60;102012.88;4912428;29;20040;-81
2023/05/19 00:39:37;;;;;;;7.47;3.30;;;;;;;9.18;70.67;102011.19;4910458;29;20041;-85
2023/05/19 00:42:04;;;;;;;6.78;2.90;;;;;;;9.20;69.96;102014.69;4912637;29;20055;-81
2023/05/19 00:44:31;;;;;;;5.63;2.83;;;;;;;9.20;70.12;102019.91;4889773;29;20712;-82
2023/05/19 00:46:58;;;;;;;5.18;3.03;;;;;;;9.21;70.18;102013.84;4908490;29;20055;-80
2023/05/19 00:49:24;;;;;;;3.65;2.30;;;;;;;9.20;70.76;102009.44;4912375;29;20059;-84
2023/05/19 00:51:50;;;;;;;4.75;1.92;;;;;;;9.18;69.94;102005.09;4896908;29;20052;-80
2023/05/19 00:54:17;;;;;;;5.90;2.47;;;;;;;9.17;70.09;102005.94;4911689;29;20039;-84
2023/05/19 00:56:44;;;;;;;7.72;3.42;;;;;;;9.16;70.71;102005.03;4909355;29;20147;-80
2023/05/19 00:59:10;;;;;;;7.18;2.13;;;;;;;9.15;70.95;102005.00;4905541;29;20048;-80
2023/05/19 01:01:37;;;;;;;5.97;2.90;;;;;;;9.16;70.87;102006.78;4895177;29;20056;-82
2023/05/19 01:04:04;;;;;;;8.02;2.50;;;;;;;9.15;71.46;102003.28;4909211;29;20055;-80
2023/05/19 01:06:30;;;;;;;11.32;2.92;;;;;;;9.14;71.41;102000.63;4904911;29;20047;-85
2023/05/19 01:08:57;;;;;;;7.55;3.10;;;;;;;9.13;71.80;102002.38;4911184;29;20058;-80
2023/05/19 01:11:23;;;;;;;7.80;2.90;;;;;;;9.13;72.17;101998.91;4905970;29;20104;-80
2023/05/19 01:13:50;;;;;;;8.27;3.40;;;;;;;9.12;72.01;102000.59;4891418;29;20045;-82
2023/05/19 01:16:41;;;;;;;3.00;2.08;;;;;;;9.12;71.66;101998.00;4925470;29;20748;-80
2023/05/19 01:20:05;;;;;;;7.03;3.58;;;;;;;9.09;72.68;102001.44;4911086;29;20052;-91
2023/05/19 01:24:02;;;;;;;7.43;2.85;;;;;;;9.05;72.77;102004.84;4919189;29;20063;-83
2023/05/19 01:26:53;;;;;;;4.45;2.97;;;;;;;9.03;72.70;102005.66;4909886;29;20065;-82
2023/05/19 01:30:06;;;;;;;8.30;2.92;;;;;;;9.02;73.19;102003.88;4893657;29;20505;-81
2023/05/19 01:32:33;;;;;;;10.60;3.42;;;;;;;8.98;73.21;102008.16;4916133;29;20048;-86
2023/05/19 01:35:04;;;;;;;6.30;2.88;;;;;;;8.96;73.64;102001.16;4911896;29;20051;-80
2023/05/19 01:37:31;;;;;;;7.18;3.47;;;;;;;8.90;73.63;101997.59;4908927;29;20609;-81
2023/05/19 01:39:57;;;;;;;5.03;2.33;;;;;;;8.87;73.44;101997.53;4914547;29;20048;-81
2023/05/19 01:42:25;;;;;;;11.88;3.78;;;;;;;8.82;74.27;102004.38;4918228;29;20036;-80
2023/05/19 01:44:52;;;;;;;5.28;2.95;;;;;;;8.76;74.89;102004.25;4893120;29;20056;-79
2023/05/19 01:47:19;;;;;;;6.55;3.10;;;;;;;8.71;74.97;102001.56;4926621;29;20052;-79
2023/05/19 01:49:45;;;;;;;7.07;2.53;;;;;;;8.67;75.96;102001.47;4897868;29;20052;-80
2023/05/19 01:52:12;;;;;;;7.32;3.22;;;;;;;8.66;75.14;102007.56;4898549;29;20064;-81
2023/05/19 01:54:38;;;;;;;4.72;2.58;;;;;;;8.58;75.59;102007.38;4898873;29;20050;-79
2023/05/19 01:58:05;;;;;;;3.38;2.20;;;;;;;8.55;76.81;102015.13;4906572;29;20051;-80
2023/05/19 02:00:51;;;;;;;7.80;2.70;;;;;;;8.50;76.53;102011.53;4859268;29;20049;-81
2023/05/19 02:03:32;;;;;;;6.60;2.40;;;;;;;8.44;77.54;102015.75;4845537;29;20080;-81
2023/05/19 02:06:13;;;;;;;8.90;3.17;;;;;;;8.43;78.14;102008.78;4905707;29;20083;-80
2023/05/19 02:09:10;;;;;;;3.45;2.92;;;;;;;8.38;78.66;102010.41;4913903;29;20103;-80
2023/05/19 02:11:44;;;;;;;9.20;2.55;;;;;;;8.35;78.44;102010.31;4896374;29;20044;-80
2023/05/19 02:14:25;;;;;;;4.80;2.65;;;;;;;8.28;78.62;102006.72;4906587;29;20044;-82
2023/05/19 02:16:52;;;;;;;5.47;3.03;;;;;;;8.23;79.60;101999.63;4913916;29;20040;-80
2023/05/19 02:19:27;;;;;;;8.02;2.55;;;;;;;8.18;79.17;102004.75;4912904;29;20070;-79
2023/05/19 02:21:55;;;;;;;5.13;2.72;;;;;;;8.09;79.62;102004.53;4896108;29;20487;-81
2023/05/19 02:24:21;;;;;;;6.78;2.88;;;;;;;8.04;80.22;102000.94;4912933;29;20044;-80
2023/05/19 02:26:49;;;;;;;7.82;3.28;;;;;;;7.99;80.67;102003.44;4912911;29;20115;-82
2023/05/19 02:29:17;;;;;;;10.93;3.05;;;;;;;7.95;81.98;102006.81;4908691;29;20045;-84
2023/05/19 02:31:43;;;;;;;7.05;3.50;;;;;;;7.93;82.26;101996.34;4907142;29;20041;-88
2023/05/19 02:34:10;;;;;;;6.18;2.67;;;;;;;7.88;81.73;101997.97;4920818;29;20047;-79
2023/05/19 02:36:39;;;;;;;5.93;3.10;;;;;;;7.82;82.21;101995.19;4906399;29;20036;-80
2023/05/19 02:39:06;;;;;;;6.93;2.47;;;;;;;7.78;82.93;101996.88;4895618;29;20051;-80
2023/05/19 02:41:32;;;;;;;6.28;2.67;;;;;;;7.79;82.93;101997.75;4911271;29;20048;-81
2023/05/19 02:43:59;;;;;;;5.57;2.92;;;;;;;7.77;82.98;101992.50;4909833;29;20054;-81
2023/05/19 02:46:25;;;;;;;7.85;2.47;;;;;;;7.75;84.23;101994.19;4914231;29;20044;-80
2023/05/19 02:48:52;;;;;;;7.80;2.80;;;;;;;7.75;83.99;101996.78;4914249;29;20692;-84
2023/05/19 02:51:19;;;;;;;5.32;2.75;;;;;;;7.74;84.11;101994.16;4900444;29;20062;-82
2023/05/19 02:53:45;;;;;;;5.82;2.40;;;;;;;7.73;84.69;101985.47;4913715;29;20100;-80
2023/05/19 02:56:12;;;;;;;6.53;2.67;;;;;;;7.74;84.43;101986.31;4911034;29;20048;-80
2023/05/19 02:58:38;;;;;;;7.82;2.97;;;;;;;7.75;85.21;101985.50;4913982;29;20075;-84
2023/05/19 03:01:05;;;;;;;6.28;2.83;;;;;;;7.72;84.63;101986.28;4900647;29;20044;-81
2023/05/19 03:03:31;;;;;;;10.35;2.50;;;;;;;7.71;85.30;101986.25;4897905;29;20048;-79
2023/05/19 03:05:58;;;;;;;7.80;3.10;;;;;;;7.75;85.73;101988.97;4921875;29;20519;-84
2023/05/19 03:08:25;;;;;;;19.08;3.38;;;;;;;7.75;85.43;101988.97;4905507;29;20044;-83
2023/05/19 03:10:54;;;;;;;9.35;3.25;;;;;;;7.74;85.77;101984.63;4913416;29;20055;-81
2023/05/19 03:13:20;;;;;;;7.40;3.25;;;;;;;7.73;85.75;101990.66;4912159;29;20079;-80
2023/05/19 03:15:49;;;;;;;7.63;3.03;;;;;;;7.72;85.82;101981.09;4912652;29;20047;-82
2023/05/19 03:18:16;;;;;;;6.80;3.20;;;;;;;7.73;87.01;101981.94;4910660;29;20047;-81
2023/05/19 03:20:43;;;;;;;10.35;2.80;;;;;;;7.74;86.83;101984.63;4877910;29;20040;-80
2023/05/19 03:23:10;;;;;;;9.32;3.30;;;;;;;7.73;86.97;101975.03;4861550;29;20425;-81
2023/05/19 03:25:37;;;;;;;8.23;2.97;;;;;;;7.72;87.20;101980.22;4878396;29;20044;-84
2023/05/19 03:28:03;;;;;;;6.25;3.10;;;;;;;7.73;86.75;101979.34;4877668;29;20067;-81
2023/05/19 03:30:31;;;;;;;7.82;3.25;;;;;;;7.73;87.30;101975.03;4889225;29;20052;-81
2023/05/19 03:33:00;;;;;;;4.47;3.47;;;;;;;7.72;87.56;101975.88;4882450;29;20132;-79
2023/05/19 03:35:27;;;;;;;10.27;4.43;;;;;;;7.75;87.35;101975.06;4887675;29;20100;-79
2023/05/19 03:37:53;;;;;;;8.60;3.53;;;;;;;7.73;87.80;101980.25;4875251;29;20053;-80
2023/05/19 03:40:20;;;;;;;5.53;2.58;;;;;;;7.71;87.08;101984.53;4879757;29;20045;-81
2023/05/19 03:42:46;;;;;;;8.38;3.47;;;;;;;7.68;87.82;101975.75;4863395;29;20045;-79
2023/05/19 03:45:13;;;;;;;7.60;3.33;;;;;;;7.62;88.22;101977.34;4882642;29;20064;-79
2023/05/19 03:47:40;;;;;;;7.47;4.28;;;;;;;7.58;88.18;101982.47;4867928;29;20058;-80
2023/05/19 03:50:08;;;;;;;8.32;3.00;;;;;;;7.52;88.87;101983.22;4896145;29;20041;-80
2023/05/19 03:52:35;;;;;;;4.70;2.83;;;;;;;7.50;89.15;101986.63;4857894;29;20048;-84
2023/05/19 03:55:01;;;;;;;5.75;3.08;;;;;;;7.47;89.61;101987.41;4867834;29;20475;-80
2023/05/19 03:57:28;;;;;;;9.40;3.20;;;;;;;7.44;89.65;101992.53;4884621;29;20096;-80
2023/05/19 03:59:55;;;;;;;10.75;3.63;;;;;;;7.44;90.63;101976.91;4882969;29;20059;-80
2023/05/19 04:02:21;;;;;;;11.05;4.10;;;;;;;7.47;90.88;101983.91;4893539;29;20045;-80
2023/05/19 04:04:49;;;;;;;8.48;4.05;;;;;;;7.46;91.21;101983.03;4885381;29;20053;-85
2023/05/19 04:07:15;;;;;;;7.28;3.00;;;;;;;7.43;90.93;101976.03;4893846;29;20056;-84
2023/05/19 04:09:42;;;;;;;5.53;3.13;;;;;;;7.41;91.19;101990.72;4894826;29;20045;-81
2023/05/19 04:12:09;;;;;;;8.80;3.35;;;;;;;7.40;92.00;101980.28;4880191;29;20060;-81
2023/05/19 04:14:35;;;;;;;8.02;3.35;;;;;;;7.38;92.08;101980.25;4892889;29;20052;-81
2023/05/19 04:17:01;;;;;;;9.48;3.95;;;;;;;7.36;92.23;101983.66;4896492;29;20044;-79
2023/05/19 04:19:28;;;;;;;7.07;3.53;;;;;;;7.32;93.03;101982.69;4879881;29;20048;-79
2023/05/19 04:21:55;;;;;;;6.20;3.15;;;;;;;7.33;93.02;101989.66;4913809;29;20661;-80
2023/05/19 04:24:22;;;;;;;7.65;3.15;;;;;;;7.32;92.71;101994.84;4908893;29;20048;-79
2023/05/19 04:26:48;;;;;;;4.30;3.10;;;;;;;7.32;93.39;101998.31;4893034;29;20048;-82
2023/05/19 04:29:16;;;;;;;6.80;3.33;;;;;;;7.33;93.26;101992.28;4914980;29;20083;-79
2023/05/19 04:31:46;;;;;;;9.85;3.78;;;;;;;7.33;92.86;101989.66;4912984;29;20123;-79
2023/05/19 04:34:12;;;;;;;8.75;3.45;;;;;;;7.37;93.41;101988.03;4915154;29;20044;-81
2023/05/19 04:36:39;;;;;;;5.30;3.35;;;;;;;7.38;93.77;101998.47;4898292;29;20388;-81
2023/05/19 04:39:08;;;;;;;10.70;4.38;;;;;;;7.39;93.81;101995.03;4910847;29;20044;-91
2023/05/19 04:41:34;;;;;;;7.93;3.30;;;;;;;7.41;93.87;101995.06;4913803;29;20044;-81
2023/05/19 04:44:01;;;;;;;6.82;3.83;;;;;;;7.40;93.54;101998.50;4911311;29;20053;-81
2023/05/19 04:46:29;;;;;;;8.07;3.85;;;;;;;7.39;93.67;101996.75;4911025;29;20055;-80
2023/05/19 04:48:55;;;;;;;8.98;3.85;;;;;;;7.39;94.33;102005.47;4914962;29;20665;-81
2023/05/19 04:51:27;;;;;;;6.32;3.30;;;;;;;7.42;94.05;102002.06;4895016;29;20044;-81
2023/05/19 04:53:55;;;;;;;6.60;3.20;;;;;;;7.43;94.23;102001.19;4907578;29;20064;-81
2023/05/19 04:56:21;;;;;;;8.05;3.80;;;;;;;7.42;94.33;101997.72;4917472;29;20052;-81
2023/05/19 04:58:49;;;;;;;6.75;3.35;;;;;;;7.42;94.84;101997.72;4926728;29;20032;-82
2023/05/19 05:01:16;;;;;;;11.57;3.25;;;;;;;7.42;94.57;101997.72;4915792;29;20048;-80
2023/05/19 05:03:43;;;;;;;10.45;3.70;;;;;;;7.44;94.66;102003.84;4916719;29;20032;-80
2023/05/19 05:06:10;;;;;;;8.38;3.65;;;;;;;7.48;94.87;101996.97;4931810;29;20036;-81
2023/05/19 05:08:39;;;;;;;10.82;3.47;;;;;;;7.54;94.53;101997.13;4924283;29;20046;-88
2023/05/19 05:11:06;;;;;;;7.03;3.13;;;;;;;7.52;94.57;101998.84;4910970;29;20067;-91
2023/05/19 05:13:32;;;;;;;4.05;3.00;;;;;;;7.53;94.52;102003.19;4920326;29;20044;-82
2023/05/19 05:16:00;;;;;;;10.35;3.47;;;;;;;7.55;94.68;101998.91;4930780;29;20152;-82
2023/05/19 05:18:27;;;;;;;13.45;4.43;;;;;;;7.58;94.64;101995.50;4918282;29;20052;-81
2023/05/19 05:20:54;;;;;;;9.77;3.67;;;;;;;7.61;94.42;101999.06;4911019;29;20119;-79
2023/05/19 05:23:21;;;;;;;12.93;4.13;;;;;;;7.64;94.00;101992.16;4935101;29;20502;-79
2023/05/19 05:25:48;;;;;;;11.48;4.50;;;;;;;7.69;94.06;102000.97;4909141;29;20096;-88
2023/05/19 05:28:15;;;;;;;6.70;2.97;;;;;;;7.75;94.43;101990.69;4918690;29;20071;-80
2023/05/19 05:30:42;;;;;;;8.82;3.47;;;;;;;7.81;93.59;101990.84;4931235;29;20048;-80
2023/05/19 05:33:09;;;;;;;10.70;3.88;;;;;;;7.84;93.67;101990.06;4902316;29;20657;-80
2023/05/19 05:35:35;;;;;;;11.20;3.60;;;;;;;7.86;93.76;101996.16;4916569;29;20036;-89
2023/05/19 05:38:03;;;;;;;15.95;3.40;;;;;;;7.91;93.82;101989.34;4944343;29;20040;-81
2023/05/19 05:40:30;;;;;;;13.27;3.00;;;;;;;7.97;93.25;101996.44;4925997;29;20044;-79
2023/05/19 05:42:57;;;;;;;10.13;3.20;;;;;;;8.04;92.79;101988.75;4905247;29;20051;-80
2023/05/19 05:45:24;;;;;;;6.75;4.03;;;;;;;8.13;92.89;101992.44;4923706;29;20041;-88
2023/05/19 05:47:52;;;;;;;11.18;4.55;;;;;;;8.22;92.35;101993.53;4929386;29;20040;-89
2023/05/19 05:50:21;;;;;;;11.98;5.03;;;;;;;8.33;91.83;102001.59;4916091;29;20081;-88
2023/05/19 05:52:49;;;;;;;9.23;4.20;;;;;;;8.42;91.03;101990.47;4929563;29;20158;-89
2023/05/19 05:55:17;;;;;;;8.20;3.80;;;;;;;8.50;90.64;101990.66;4907948;29;20097;-82
2023/05/19 05:57:43;;;;;;;10.80;4.38;;;;;;;8.56;90.57;101999.50;4930660;29;20040;-81
2023/05/19 06:00:15;;;;;;;6.10;3.88;;;;;;;8.62;90.08;101993.53;4936621;29;20044;-85
2023/05/19 06:02:46;;;;;;;8.43;3.20;;;;;;;8.71;89.63;101998.94;4933959;29;20072;-80
2023/05/19 06:05:14;;;;;;;8.27;3.22;;;;;;;8.79;88.71;102001.72;4940610;29;20079;-80
2023/05/19 06:07:41;;;;;;;6.78;4.00;;;;;;;8.89;88.51;101998.44;4926127;29;20039;-82
2023/05/19 06:10:09;;;;;;;5.28;3.13;;;;;;;8.94;88.37;101995.91;4924210;29;20055;-80
2023/05/19 06:12:38;;;;;;;7.40;3.97;;;;;;;9.09;88.08;102001.44;4940229;29;20050;-79
2023/05/19 06:15:06;;;;;;;5.25;3.03;;;;;;;9.19;86.78;101998.97;4937743;29;20542;-81
2023/05/19 06:17:34;;;;;;;8.45;3.38;;;;;;;9.24;86.47;102007.78;4923943;29;20048;-81
2023/05/19 06:20:02;;;;;;;7.38;3.35;;;;;;;9.34;85.78;101998.41;4908415;29;20084;-82
2023/05/19 06:22:29;;;;;;;7.55;3.28;;;;;;;9.43;85.80;102003.78;4937262;29;20044;-79
2023/05/19 06:24:56;;;;;;;7.38;3.40;;;;;;;9.57;85.27;101996.19;4921767;29;20044;-81
2023/05/19 06:27:22;;;;;;;7.07;4.68;;;;;;;9.64;83.94;101994.56;4922179;29;20047;-81
2023/05/19 06:29:49;;;;;;;3.55;2.50;;;;;;;9.69;83.56;101995.50;4906301;29;20036;-80
2023/05/19 06:32:16;;;;;;;7.22;2.72;;;;;;;9.74;83.15;101994.72;4904121;29;20087;-80
2023/05/19 06:34:43;;;;;;;5.97;2.47;;;;;;;9.81;82.65;101994.81;4919907;29;20051;-84
2023/05/19 06:37:10;;;;;;;10.10;3.35;;;;;;;9.87;81.69;101987.94;4886832;29;20044;-79
2023/05/19 06:39:40;;;;;;;5.68;2.78;;;;;;;9.98;82.13;101993.34;4921978;29;20044;-80
2023/05/19 06:42:06;;;;;;;6.55;3.15;;;;;;;10.07;81.18;101993.47;4905213;29;20123;-82
2023/05/19 06:44:35;;;;;;;9.85;5.38;;;;;;;10.12;80.60;101990.94;4922111;29;20111;-82
2023/05/19 06:47:01;;;;;;;5.57;3.20;;;;;;;10.17;80.01;101991.88;4922293;29;20036;-78
2023/05/19 06:49:28;;;;;;;3.38;2.53;;;;;;;10.23;80.11;101991.06;4921489;29;20040;-79
2023/05/19 06:51:55;;;;;;;8.98;3.60;;;;;;;10.31;79.64;101991.19;4905249;29;20571;-81
2023/05/19 06:54:21;;;;;;;11.38;4.30;;;;;;;10.37;79.74;101989.56;4918212;29;20052;-82
2023/05/19 06:56:48;;;;;;;4.57;3.25;;;;;;;10.45;79.05;101984.41;4915842;29;20046;-85
2023/05/19 06:59:15;;;;;;;6.45;3.28;;;;;;;10.58;78.58;101982.84;4926371;29;20088;-83
2023/05/19 07:01:41;;;;;;;10.63;3.80;;;;;;;10.78;78.00;101985.72;4905499;29;20051;-81
2023/05/19 07:04:08;;;;;;;6.88;3.45;;;;;;;10.99;76.99;101985.06;4931976;29;20040;-81
2023/05/19 07:06:34;;;;;;;7.97;2.75;;;;;;;11.13;76.04;101981.72;4900236;29;20500;-79
2023/05/19 07:09:03;;;;;;;7.28;2.78;;;;;;;11.44;74.77;101987.25;4908175;29;20056;-80
2023/05/19 07:11:30;;;;;;;4.05;3.33;;;;;;;11.83;71.63;101978.81;4902895;29;20516;-84
2023/05/19 07:13:56;;;;;;;7.40;3.25;;;;;;;12.17;69.98;101991.31;4919239;29;20124;-85
2023/05/19 07:16:23;;;;;;;7.70;3.08;;;;;;;12.67;69.09;101982.81;4899637;29;20156;-83
2023/05/19 07:18:49;;;;;;;6.57;3.20;;;;;;;13.24;67.27;101980.31;4888830;29;20048;-87
2023/05/19 07:21:16;;;;;;;6.72;2.63;;;;;;;13.96;64.42;101975.06;4911451;29;20051;-82
2023/05/19 07:23:42;;;;;;;9.45;2.90;;;;;;;14.38;58.86;101974.06;4902791;29;20157;-80
2023/05/19 07:26:09;;;;;;;6.93;3.33;;;;;;;14.71;59.96;101968.69;4923377;29;20047;-81
2023/05/19 07:28:36;;;;;;;5.65;3.13;;;;;;;14.97;57.98;101971.19;4897300;29;20041;-82
2023/05/19 07:31:03;;;;;;;8.07;3.25;;;;;;;15.22;55.37;101969.25;4902725;29;20059;-81
2023/05/19 07:33:30;;;;;;;8.15;2.90;;;;;;;15.57;55.91;101969.88;4932604;29;20048;-80
2023/05/19 07:35:57;;;;;;;4.07;2.30;;;;;;;16.14;54.80;101969.34;4910295;29;20064;-84
2023/05/19 07:38:23;;;;;;;13.63;4.22;;;;;;;16.59;52.96;101966.13;4914027;29;20051;-81
2023/05/19 07:40:50;;;;;;;5.55;2.13;;;;;;;16.76;52.33;101962.41;4901541;29;20048;-84
2023/05/19 07:43:17;;;;;;;13.07;2.85;;;;;;;17.00;51.35;101963.84;4916318;29;20380;-80
2023/05/19 07:45:44;;;;;;;10.77;3.63;;;;;;;17.53;49.27;101962.13;4918013;29;20033;-80
2023/05/19 07:48:11;;;;;;;8.05;2.67;;;;;;;17.95;49.05;101965.81;4900424;29;20111;-81
2023/05/19 07:50:38;;;;;;;5.97;2.55;;;;;;;18.37;47.87;101954.41;4899871;29;20054;-81
2023/05/19 07:53:04;;;;;;;9.40;2.38;;;;;;;19.07;46.54;101943.16;4900280;29;20467;-80
2023/05/19 07:55:31;;;;;;;7.05;2.70;;;;;;;19.53;44.99;101943.78;4920129;29;20128;-80
2023/05/19 07:57:57;;;;;;;7.95;3.95;;;;;;;19.73;44.35;101945.94;4917471;29;20051;-83
2023/05/19 08:00:24;;;;;;;6.47;2.05;;;;;;;19.70;43.01;101940.69;4916673;29;20047;-78
2023/05/19 08:02:51;;;;;;;6.53;2.70;;;;;;;19.88;41.93;101950.88;4896755;29;20044;-81
2023/05/19 08:05:18;;;;;;;5.07;2.47;;;;;;;19.89;42.75;101938.47;4918754;29;20124;-80
2023/05/19 08:07:44;;;;;;;6.35;2.35;;;;;;;20.31;41.59;101943.47;4918074;29;20043;-81
2023/05/19 08:10:11;;;;;;;4.65;1.73;;;;;;;20.85;40.93;101943.66;4902032;29;20100;-80
2023/05/19 08:12:37;;;;;;;4.95;2.28;;;;;;;21.13;38.80;101951.63;4918549;29;20440;-80
2023/05/19 08:15:05;;;;;;;4.82;1.88;;;;;;;21.05;38.06;101935.88;4918573;29;20040;-79
2023/05/19 08:17:31;;;;;;;8.18;2.38;;;;;;;21.42;38.51;101941.78;4914763;29;20059;-82
2023/05/19 08:19:59;;;;;;;3.67;1.77;;;;;;;21.81;38.39;101944.00;4900390;29;20052;-80
2023/05/19 08:22:25;;;;;;;5.03;2.20;;;;;;;21.92;36.65;101943.66;4909252;29;20072;-81
2023/05/19 08:24:52;;;;;;;3.70;1.60;;;;;;;21.39;36.34;101947.22;4899310;29;20091;-84
2023/05/19 08:27:18;;;;;;;2.72;1.50;;;;;;;21.13;37.22;101935.63;4915058;29;20045;-81
2023/05/19 08:29:45;;;;;;;3.75;1.80;;;;;;;21.39;37.46;101947.22;4915234;29;20041;-80
2023/05/19 08:32:11;;;;;;;3.33;1.80;;;;;;;21.98;35.59;101941.63;4906915;29;20060;-82
2023/05/19 08:34:40;;;;;;;3.67;1.48;;;;;;;22.41;35.09;101940.97;4915381;29;20092;-82
2023/05/19 08:37:07;;;;;;;3.65;1.77;;;;;;;22.78;34.14;101940.41;4899056;29;20464;-81
2023/05/19 08:39:33;;;;;;;5.82;1.73;;;;;;;23.09;33.58;101936.50;4913869;29;20446;-80
2023/05/19 08:42:01;;;;;;;5.63;1.65;;;;;;;23.67;33.15;101928.75;4891487;29;20052;-81
2023/05/19 08:44:27;;;;;;;6.78;1.25;;;;;;;23.43;32.80;101923.56;4897903;29;20041;-81
2023/05/19 08:46:55;;;;;;;3.65;1.60;;;;;;;23.76;31.43;101923.00;4908491;29;20045;-82
2023/05/19 08:49:27;;;;;;;5.60;2.17;;;;;;;24.30;30.86;101922.41;4913625;29;20056;-81
2023/05/19 08:52:13;;;;;;;6.23;2.07;;;;;;;24.71;30.33;101919.59;4928651;29;20118;-81
2023/05/19 08:54:50;;;;;;;6.82;1.40;;;;;;;24.52;30.38;101919.56;4909347;29;20044;-81
2023/05/19 08:57:17;;;;;;;4.45;1.27;;;;;;;25.00;29.44;101922.66;4912426;29;20100;-84
2023/05/19 08:59:44;;;;;;;8.70;1.60;;;;;;;25.25;28.61;101919.59;4912679;29;20056;-82
2023/05/19 09:02:12;;;;;;;5.13;2.30;;;;;;;25.38;28.49;101915.38;4917685;29;20041;-79
2023/05/19 09:04:40;;;;;;;5.10;1.77;;;;;;;25.19;29.45;101912.75;4930472;29;20059;-82
2023/05/19 09:07:08;;;;;;;3.85;1.30;;;;;;;25.72;28.41;101919.00;4894046;29;20052;-87
2023/05/19 09:09:34;;;;;;;3.85;1.70;;;;;;;25.80;28.41;101917.69;4897482;29;20099;-82
2023/05/19 09:12:01;;;;;;;5.63;1.35;;;;;;;26.01;26.82;101916.56;4898252;29;20044;-83
2023/05/19 09:14:28;;;;;;;4.70;1.77;;;;;;;26.16;27.41;101906.81;4916131;29;20044;-84
2023/05/19 09:16:55;;;;;;;4.28;1.88;;;;;;;26.10;27.40;101904.50;4897604;29;20044;-81
2023/05/19 09:19:21;;;;;;;6.60;1.42;;;;;;;26.36;27.63;101908.41;4903807;29;20609;-89
2023/05/19 09:21:59;;;;;;;5.88;1.85;;;;;;;26.20;27.87;101905.69;4913546;29;20071;-83
2023/05/19 09:24:26;;;;;;;6.95;1.95;;;;;;;26.91;27.12;101901.72;4911217;29;20150;-80
2023/05/19 09:26:56;;;;;;;2.80;1.65;;;;;;;27.05;27.21;101900.03;4911860;29;20044;-83
2023/05/19 09:29:23;;;;;;;4.30;1.58;;;;;;;27.34;26.47;101894.72;4910073;29;20052;-84
2023/05/19 09:31:50;;;;;;;3.95;2.03;;;;;;;27.72;26.13;101895.13;4912532;29;20495;-83
2023/05/19 09:34:17;;;;;;;4.68;1.58;;;;;;;26.98;26.91;101891.47;4913775;29;20070;-82
2023/05/19 09:36:48;;;;;;;3.28;2.20;;;;;;;27.65;26.51;101890.22;4912811;29;20044;-81
2023/05/19 09:39:20;;;;;;;4.50;2.10;;;;;;;27.91;25.15;101885.88;4894579;29;20053;-80
2023/05/19 09:41:47;;;;;;;1.70;1.33;;;;;;;27.67;25.07;101880.22;4915508;29;20491;-85
2023/05/19 09:44:27;;;;;;;2.50;1.55;;;;;;;27.35;25.43;101877.66;4913953;29;20040;-81
2023/05/19 09:46:54;;;;;;;6.30;2.10;;;;;;;27.55;25.39;101882.72;4928936;29;20568;-83
2023/05/19 09:49:49;;;;;;;2.83;1.90;;;;;;;28.02;24.02;101883.41;4919098;29;20059;-83
2023/05/19 09:52:16;;;;;;;5.50;2.83;;;;;;;27.90;24.48;101895.81;4900224;29;20036;-81
2023/05/19 09:54:43;;;;;;;3.85;1.83;;;;;;;27.15;25.24;101871.66;4914801;29;20487;-84
2023/05/19 09:57:09;;;;;;;2.90;1.52;;;;;;;28.00;24.82;101873.69;4898646;29;20111;-82
2023/05/19 09:59:37;;;;;;;4.35;1.77;;;;;;;28.23;23.81;101870.41;4915178;29;20101;-82
2023/05/19 10:02:05;;;;;;;2.00;1.65;;;;;;;28.39;24.13;101881.06;4896371;29;20099;-83
2023/05/19 10:04:31;;;;;;;2.15;1.92;;;;;;;27.80;24.54;101867.72;4926887;29;20055;-82
2023/05/19 10:06:59;;;;;;;3.08;1.33;;;;;;;28.12;24.65;101864.88;4924468;29;20040;-82
2023/05/19 10:09:28;;;;;;;3.33;1.77;;;;;;;28.71;23.88;101861.94;4890665;29;20108;-83
2023/05/19 10:11:58;;;;;;;5.00;2.40;;;;;;;26.94;25.58;101867.56;4915415;29;20063;-81
2023/05/19 10:14:28;;;;;;;2.45;1.50;;;;;;;26.39;25.43;101869.78;4914674;29;20051;-81
2023/05/19 10:16:57;;;;;;;2.53;1.40;;;;;;;25.83;26.68;101848.66;4910834;29;20052;-81
2023/05/19 10:19:29;;;;;;;2.33;1.50;;;;;;;26.12;26.23;101854.25;4889790;29;20057;-82
2023/05/19 10:21:56;;;;;;;3.75;2.20;;;;;;;24.68;27.04;101866.19;4914361;29;20422;-80
2023/05/19 10:24:23;;;;;;;1.13;1.10;;;;;;;23.23;28.94;101869.19;4926918;29;20112;-82
2023/05/19 10:26:54;;;;;;;2.17;1.20;;;;;;;22.38;29.82;101866.41;4911795;29;20103;-81
2023/05/19 10:29:26;;;;;;;5.00;1.75;;;;;;;24.03;27.96;101854.06;4918332;29;20128;-84
2023/05/19 10:31:57;;;;;;;1.42;1.30;;;;;;;26.15;25.48;101853.22;4921383;29;20107;-80
2023/05/19 10:35:04;;;;;;;3.15;1.55;;;;;;;26.79;24.53;101847.84;4911626;29;20052;-81
2023/05/19 10:37:54;;;;;;;4.22;1.80;;;;;;;26.68;24.71;101838.56;4907111;29;20472;-82
2023/05/19 10:40:55;;;;;;;1.60;1.50;;;;;;;23.94;27.59;101847.31;4914346;29;20044;-81
2023/05/19 10:43:58;;;;;;;2.22;1.42;;;;;;;25.21;27.24;101835.84;4912026;29;20103;-81
2023/05/19 10:46:27;;;;;;;2.33;1.63;;;;;;;26.31;25.80;101834.44;4910432;29;20052;-80
2023/05/19 10:48:54;;;;;;;2.92;1.95;;;;;;;27.42;24.68;101833.34;4914852;29;20127;-81
2023/05/19 10:51:20;;;;;;;5.30;1.42;;;;;;;27.66;23.87;101825.56;4911998;29;20051;-81
2023/05/19 10:53:48;;;;;;;6.65;2.03;;;;;;;27.72;24.11;101816.25;4912919;29;20050;-84
2023/05/19 10:56:32;;;;;;;5.32;1.60;;;;;;;28.04;23.53;101819.59;4908399;29;20076;-82
2023/05/19 10:58:59;;;;;;;5.53;1.33;;;;;;;27.70;23.57;101815.47;4910601;29;20046;-81
2023/05/19 11:01:37;;;;;;;1.13;0.90;;;;;;;26.73;24.66;101806.94;4908036;29;20045;-81
2023/05/19 11:04:10;;;;;;;3.63;1.30;;;;;;;24.23;26.58;101817.47;4913476;29;20040;-82
2023/05/19 11:06:39;;;;;;;3.20;1.52;;;;;;;22.97;28.58;101816.81;4895444;29;20131;-84
2023/05/19 11:09:09;;;;;;;4.05;1.70;;;;;;;24.08;27.35;101821.75;4929873;29;20119;-87
2023/05/19 11:11:55;;;;;;;6.68;1.20;;;;;;;27.19;23.52;101806.00;4907717;29;20050;-81
2023/05/19 11:14:26;;;;;;;3.28;1.40;;;;;;;28.41;21.85;101808.25;4907119;29;20084;-82
2023/05/19 11:16:57;;;;;;;2.38;0.88;;;;;;;29.36;21.47;101809.00;4915877;29;20044;-83
2023/05/19 11:19:36;;;;;;;1.95;0.77;;;;;;;30.38;19.96;101806.19;4926890;29;20051;-83
2023/05/19 11:22:12;;;;;;;1.67;1.10;;;;;;;30.64;19.96;101800.69;4897378;29;20055;-82
2023/05/19 11:24:44;;;;;;;2.60;1.40;;;;;;;28.81;22.34;101811.00;4912104;29;20051;-82
2023/05/19 11:27:31;;;;;;;4.13;1.63;;;;;;;26.27;24.72;101814.97;4930887;29;20066;-81
2023/05/19 11:30:06;;;;;;;2.13;1.00;;;;;;;24.14;26.94;101812.56;4898921;29;20076;-82
2023/05/19 11:32:34;;;;;;;4.28;0.90;;;;;;;22.79;28.20;101811.34;4910746;29;20458;-83
2023/05/19 11:35:02;;;;;;;1.33;0.90;;;;;;;22.04;29.35;101812.53;4910763;29;20048;-81
2023/05/19 11:37:33;;;;;;;1.70;1.13;;;;;;;21.32;29.57;101822.25;4914468;29;20048;-83
2023/05/19 11:40:09;;;;;;;1.17;0.55;;;;;;;21.59;29.17;101813.34;4909584;29;20044;-82